Time;durP1;ratioP1;P1;durP2;ratioP2;P2;SDS_P1;SDS_P2;PMS_P1;PMS_P2;Temp;Humidity;BMP_temperature;BMP_pressure;BME280_temperature;BME280_humidity;BME280_pressure;Samples;Min_cycle;Max_cycle;Signal;HPM_P1;HPM_P2
2022/04/12 00:00:32;;;;;;;5.85;3.40;;;11.90;90.80;;;;;;5054376;28;20432;-78
2022/04/12 00:02:58;;;;;;;8.57;3.85;;;12.00;91.10;;;;;;5054263;28;20477;-80
2022/04/12 00:05:24;;;;;;;7.88;3.90;;;12.00;91.10;;;;;;5054182;28;20033;-80
2022/04/12 00:07:51;;;;;;;5.50;3.42;;;12.00;91.00;;;;;;5053711;28;20040;-79
2022/04/12 00:10:16;;;;;;;7.57;3.67;;;12.00;91.30;;;;;;5054410;28;20474;-80
2022/04/12 00:12:43;;;;;;;7.13;3.45;;;12.20;91.60;;;;;;5052785;28;20028;-79
2022/04/12 00:15:10;;;;;;;8.70;3.88;;;12.00;91.50;;;;;;5054048;28;20061;-77
2022/04/12 00:20:21;;;;;;;6.95;3.40;;;11.90;91.50;;;;;;5054217;28;20057;-80
2022/04/12 00:22:47;;;;;;;11.57;3.90;;;12.00;91.40;;;;;;5053633;28;20025;-80
2022/04/12 00:25:13;;;;;;;9.30;3.47;;;12.00;91.80;;;;;;5053902;28;20052;-79
2022/04/12 00:27:41;;;;;;;8.60;3.40;;;11.80;91.70;;;;;;5053571;28;20063;-79
2022/04/12 00:30:09;;;;;;;7.03;3.78;;;11.80;91.90;;;;;;5052646;28;20037;-79
2022/04/12 00:32:35;;;;;;;7.68;3.28;;;11.80;92.00;;;;;;5053720;28;20025;-79
2022/04/12 00:35:03;;;;;;;7.75;3.08;;;12.10;91.80;;;;;;5053406;28;20037;-78
2022/04/12 00:37:29;;;;;;;4.95;3.08;;;12.10;91.30;;;;;;5053683;28;20150;-80
2022/04/12 00:39:55;;;;;;;9.32;3.72;;;12.00;91.70;;;;;;5052261;28;20496;-80
2022/04/12 00:42:21;;;;;;;6.20;3.60;;;11.80;91.80;;;;;;5053745;28;20539;-78
2022/04/12 00:44:47;;;;;;;8.80;3.88;;;11.80;92.00;;;;;;5037723;28;20033;-78
2022/04/12 00:47:13;;;;;;;5.32;3.25;;;11.80;92.30;;;;;;5038089;28;20040;-78
2022/04/12 00:49:39;;;;;;;7.70;3.50;;;11.80;91.90;;;;;;5052851;28;20041;-79
2022/04/12 00:52:07;;;;;;;6.15;3.20;;;11.70;92.10;;;;;;5052323;28;20381;-79
2022/04/12 00:54:34;;;;;;;9.30;3.38;;;11.70;92.20;;;;;;5052125;28;20127;-78
2022/04/12 00:57:00;;;;;;;11.30;3.30;;;11.70;92.20;;;;;;5053404;28;20032;-80
2022/04/12 00:59:26;;;;;;;6.32;2.97;;;11.70;92.30;;;;;;5051927;28;20385;-78
2022/04/12 01:01:52;;;;;;;6.55;3.30;;;11.70;92.20;;;;;;5051934;28;20384;-78
2022/04/12 01:04:18;;;;;;;5.75;3.08;;;11.70;92.50;;;;;;5033390;28;20034;-80
2022/04/12 01:06:44;;;;;;;10.77;3.05;;;11.70;92.50;;;;;;5033315;28;20117;-79
2022/04/12 01:09:10;;;;;;;6.43;3.42;;;11.70;92.50;;;;;;5033001;28;20072;-79
2022/04/12 01:11:37;;;;;;;7.28;3.10;;;11.70;92.40;;;;;;5033184;28;20036;-79
2022/04/12 01:14:03;;;;;;;6.80;3.20;;;11.60;92.40;;;;;;5033188;28;20034;-80
2022/04/12 01:16:29;;;;;;;7.25;3.38;;;11.70;92.70;;;;;;5033130;28;20018;-79
2022/04/12 01:18:55;;;;;;;8.38;3.58;;;11.60;92.50;;;;;;5032620;28;20545;-78
2022/04/12 01:21:21;;;;;;;9.00;3.03;;;11.60;92.70;;;;;;5033078;28;20037;-77
2022/04/12 01:24:00;;;;;;;5.82;2.78;;;11.60;92.80;;;;;;5032889;28;20359;-79
2022/04/12 01:26:26;;;;;;;7.22;3.35;;;11.60;92.80;;;;;;5033054;28;20033;-80
2022/04/12 01:28:51;;;;;;;10.98;3.28;;;11.60;92.90;;;;;;5032774;28;20061;-79
2022/04/12 01:31:17;;;;;;;11.90;3.42;;;11.50;93.00;;;;;;5033032;28;20474;-79
2022/04/12 01:33:43;;;;;;;6.55;3.15;;;11.50;93.20;;;;;;5031579;28;20106;-79
2022/04/12 01:36:09;;;;;;;4.40;2.83;;;11.50;93.20;;;;;;5033306;28;20037;-80
2022/04/12 01:38:34;;;;;;;7.75;4.15;;;11.50;93.20;;;;;;5032971;28;20025;-79
2022/04/12 01:41:02;;;;;;;12.45;5.45;;;11.40;93.50;;;;;;5033130;28;20483;-80
2022/04/12 01:43:28;;;;;;;9.57;4.50;;;11.40;93.40;;;;;;5033001;28;20033;-79
2022/04/12 01:45:54;;;;;;;18.13;7.45;;;11.30;93.80;;;;;;5032946;28;20018;-78
2022/04/12 01:48:20;;;;;;;15.98;5.97;;;11.30;93.70;;;;;;5046752;28;20394;-79
2022/04/12 01:50:46;;;;;;;11.27;5.55;;;11.30;94.00;;;;;;5052651;28;20500;-80
2022/04/12 01:53:11;;;;;;;7.72;4.20;;;11.30;94.30;;;;;;5052744;28;20096;-78
2022/04/12 01:55:37;;;;;;;11.30;4.20;;;11.40;94.20;;;;;;5052633;28;20117;-79
2022/04/12 01:58:04;;;;;;;18.58;5.00;;;11.40;94.20;;;;;;5052666;28;20029;-80
2022/04/12 02:00:30;;;;;;;22.20;9.40;;;11.40;94.30;;;;;;5055859;28;20421;-78
2022/04/12 02:02:56;;;;;;;33.00;11.15;;;11.40;94.00;;;;;;5056279;28;20029;-79
2022/04/12 02:05:21;;;;;;;31.67;12.27;;;11.30;94.00;;;;;;5056740;28;20420;-79
2022/04/12 02:07:47;;;;;;;18.00;7.25;;;11.20;94.40;;;;;;5056411;28;20441;-80
2022/04/12 02:10:13;;;;;;;12.60;5.25;;;11.20;94.60;;;;;;5056609;28;20029;-80
2022/04/12 02:12:39;;;;;;;19.92;7.72;;;11.30;94.30;;;;;;5056428;28;20025;-79
2022/04/12 02:15:05;;;;;;;18.98;6.80;;;11.40;94.60;;;;;;5056408;28;20119;-79
2022/04/12 02:17:31;;;;;;;7.55;3.83;;;11.40;94.70;;;;;;5056313;28;20025;-80
2022/04/12 02:19:57;;;;;;;4.93;2.90;;;11.60;94.70;;;;;;5056392;28;20025;-76
2022/04/12 02:22:23;;;;;;;8.50;3.13;;;11.70;94.30;;;;;;5056355;28;20075;-74
2022/04/12 02:24:49;;;;;;;7.45;3.05;;;11.80;94.40;;;;;;5056187;28;20466;-75
2022/04/12 02:27:14;;;;;;;7.20;2.88;;;11.90;94.00;;;;;;5056165;28;20032;-75
2022/04/12 02:29:40;;;;;;;7.07;2.70;;;11.90;94.00;;;;;;5056124;28;20509;-72
2022/04/12 02:32:06;;;;;;;10.02;3.53;;;11.80;94.10;;;;;;5055640;28;20385;-74
2022/04/12 02:34:32;;;;;;;6.15;2.80;;;11.90;94.00;;;;;;5056114;28;20017;-78
2022/04/12 02:36:58;;;;;;;5.93;2.92;;;11.60;94.00;;;;;;5056014;28;20033;-78
2022/04/12 02:39:24;;;;;;;5.70;2.78;;;11.60;94.50;;;;;;5056068;28;20056;-78
2022/04/12 02:41:50;;;;;;;4.85;2.95;;;11.40;94.80;;;;;;5055730;28;20100;-80
2022/04/12 02:44:16;;;;;;;6.20;3.33;;;11.40;95.30;;;;;;5055969;28;20453;-79
2022/04/12 02:46:42;;;;;;;6.43;3.10;;;11.40;95.30;;;;;;5055412;28;20029;-79
2022/04/12 02:49:08;;;;;;;4.55;2.83;;;11.50;95.00;;;;;;5055790;28;20363;-78
2022/04/12 02:51:34;;;;;;;7.38;3.03;;;11.40;95.20;;;;;;5055826;28;20017;-78
2022/04/12 02:53:59;;;;;;;3.25;2.58;;;11.30;95.50;;;;;;5055878;28;20478;-80
2022/04/12 02:56:25;;;;;;;6.18;2.92;;;11.30;95.40;;;;;;5054373;28;20485;-75
2022/04/12 02:58:51;;;;;;;8.15;3.08;;;11.10;96.00;;;;;;5055603;28;20041;-76
2022/04/12 03:01:17;;;;;;;6.82;2.83;;;10.90;96.20;;;;;;5055323;28;20028;-74
2022/04/12 03:03:42;;;;;;;5.85;3.80;;;11.00;96.40;;;;;;5055385;28;20115;-75
2022/04/12 03:06:08;;;;;;;6.45;2.70;;;11.10;95.90;;;;;;5055657;28;20049;-76
2022/04/12 03:08:34;;;;;;;6.15;2.63;;;11.10;96.00;;;;;;5055414;28;20390;-80
2022/04/12 03:10:59;;;;;;;5.15;2.97;;;11.10;96.10;;;;;;5055019;28;20036;-75
2022/04/12 03:13:25;;;;;;;4.85;3.00;;;11.00;95.90;;;;;;5055265;28;20028;-74
2022/04/12 03:15:51;;;;;;;6.30;3.15;;;11.00;96.00;;;;;;5055055;28;20139;-75
2022/04/12 03:18:17;;;;;;;8.13;3.17;;;11.10;96.00;;;;;;5055234;28;20104;-75
2022/04/12 03:20:43;;;;;;;6.68;3.00;;;11.10;96.00;;;;;;5055194;28;20486;-73
2022/04/12 03:23:09;;;;;;;3.92;3.08;;;11.10;95.90;;;;;;5055041;28;20486;-73
2022/04/12 03:25:35;;;;;;;9.93;3.05;;;11.10;96.00;;;;;;5053788;28;20048;-74
2022/04/12 03:28:01;;;;;;;5.95;2.90;;;11.10;95.90;;;;;;5054866;28;20405;-74
2022/04/12 03:30:27;;;;;;;5.80;3.13;;;11.20;96.20;;;;;;5054775;28;20025;-72
2022/04/12 03:32:53;;;;;;;6.60;3.38;;;11.20;96.50;;;;;;5054671;28;20037;-73
2022/04/12 03:35:19;;;;;;;6.53;3.05;;;11.50;96.20;;;;;;5055202;28;20017;-77
2022/04/12 03:37:45;;;;;;;6.40;3.13;;;11.40;96.30;;;;;;5053508;28;20029;-77
2022/04/12 03:40:11;;;;;;;6.95;3.17;;;11.50;96.50;;;;;;5054837;28;20028;-74
2022/04/12 03:42:37;;;;;;;5.78;3.08;;;11.40;96.30;;;;;;5054696;28;20127;-76
2022/04/12 03:45:03;;;;;;;5.45;3.50;;;11.40;96.20;;;;;;5053304;28;20033;-73
2022/04/12 03:47:29;;;;;;;6.80;2.97;;;11.30;96.60;;;;;;5054804;28;20020;-78
2022/04/12 03:49:54;;;;;;;7.70;3.38;;;11.20;96.60;;;;;;5054659;28;20495;-80
2022/04/12 03:52:20;;;;;;;7.57;3.20;;;11.20;97.10;;;;;;5054792;28;20070;-81
2022/04/12 03:54:46;;;;;;;5.93;3.42;;;11.20;97.00;;;;;;5054523;28;20024;-78
2022/04/12 03:57:11;;;;;;;6.95;3.00;;;10.90;97.00;;;;;;5054379;28;20104;-80
2022/04/12 03:59:37;;;;;;;7.00;2.92;;;10.70;97.50;;;;;;5054277;28;20363;-79
2022/04/12 04:02:03;;;;;;;15.55;3.55;;;10.50;98.10;;;;;;5054385;28;20098;-79
2022/04/12 04:04:29;;;;;;;7.00;3.28;;;10.40;98.50;;;;;;5054144;28;20033;-79
2022/04/12 04:06:54;;;;;;;5.00;3.25;;;10.40;99.10;;;;;;5054349;28;20025;-79
2022/04/12 04:09:21;;;;;;;7.47;3.50;;;10.50;99.10;;;;;;5054106;28;20052;-78
2022/04/12 04:11:48;;;;;;;10.30;3.83;;;10.40;99.30;;;;;;5054403;28;20021;-73
2022/04/12 04:14:15;;;;;;;7.90;3.60;;;10.40;99.30;;;;;;5053916;28;20488;-78
2022/04/12 04:16:41;;;;;;;6.78;3.03;;;10.40;99.40;;;;;;5054081;28;20071;-78
2022/04/12 04:19:09;;;;;;;8.20;3.60;;;10.40;99.40;;;;;;5054014;28;20363;-74
2022/04/12 04:21:36;;;;;;;6.78;3.33;;;10.20;99.70;;;;;;5053356;28;20070;-78
2022/04/12 04:24:02;;;;;;;5.05;2.72;;;10.20;99.90;;;;;;5053924;28;20025;-75
2022/04/12 04:26:28;;;;;;;13.18;3.60;;;10.20;99.90;;;;;;5052700;28;20036;-75
2022/04/12 04:28:54;;;;;;;6.75;3.65;;;10.30;99.90;;;;;;5052130;28;20371;-76
2022/04/12 04:31:20;;;;;;;14.43;6.55;;;10.20;99.90;;;;;;5053846;28;20021;-77
2022/04/12 04:33:46;;;;;;;25.73;9.77;;;10.20;99.90;;;;;;5053797;28;20025;-71
2022/04/12 04:36:12;;;;;;;40.40;10.77;;;10.10;99.90;;;;;;5052702;28;20074;-76
2022/04/12 04:38:37;;;;;;;17.60;6.28;;;10.20;99.90;;;;;;5053639;28;20097;-78
2022/04/12 04:41:03;;;;;;;65.63;17.80;;;10.10;99.90;;;;;;5052316;28;20098;-78
2022/04/12 04:43:29;;;;;;;59.10;18.17;;;10.10;99.90;;;;;;5053238;28;20553;-78
2022/04/12 04:45:55;;;;;;;31.05;10.07;;;10.10;99.90;;;;;;5053869;28;20025;-79
2022/04/12 04:48:21;;;;;;;16.27;5.80;;;10.10;99.90;;;;;;5053188;28;20496;-78
2022/04/12 04:50:47;;;;;;;7.80;3.63;;;10.10;99.90;;;;;;5053653;28;20056;-79
2022/04/12 04:53:12;;;;;;;6.55;3.67;;;10.10;99.90;;;;;;5053478;28;20499;-78
2022/04/12 04:55:42;;;;;;;5.15;3.28;;;10.00;99.90;;;;;;5053278;28;20029;-79
2022/04/12 04:58:08;;;;;;;7.20;3.30;;;10.00;99.90;;;;;;5053287;28;20032;-78
2022/04/12 05:00:34;;;;;;;6.28;3.60;;;9.90;99.90;;;;;;5053313;28;20063;-79
2022/04/12 05:03:01;;;;;;;10.52;3.88;;;10.00;99.90;;;;;;5053334;28;20067;-78
2022/04/12 05:05:27;;;;;;;7.28;3.30;;;10.10;99.90;;;;;;5053236;28;20524;-77
2022/04/12 05:07:55;;;;;;;6.70;3.67;;;10.10;99.90;;;;;;5051833;28;20044;-78
2022/04/12 05:10:29;;;;;;;13.18;3.67;;;10.10;99.90;;;;;;5051953;28;20393;-78
2022/04/12 05:12:55;;;;;;;7.65;3.83;;;10.10;99.90;;;;;;5053192;28;20027;-72
2022/04/12 05:15:22;;;;;;;8.38;3.53;;;10.20;99.90;;;;;;5052930;28;20452;-72
2022/04/12 05:17:52;;;;;;;5.28;3.85;;;10.10;99.90;;;;;;5053130;28;20033;-78
2022/04/12 05:20:19;;;;;;;7.78;3.72;;;10.10;99.90;;;;;;5053003;28;20338;-77
2022/04/12 05:22:45;;;;;;;10.90;3.60;;;10.10;99.90;;;;;;5053017;28;20446;-78
2022/04/12 05:25:11;;;;;;;10.93;3.78;;;10.20;99.90;;;;;;5052518;28;20031;-78
2022/04/12 05:27:37;;;;;;;11.20;4.45;;;10.30;99.90;;;;;;5052647;28;20111;-78
2022/04/12 05:30:07;;;;;;;7.65;3.55;;;10.40;99.90;;;;;;5052826;28;20458;-78
2022/04/12 05:32:33;;;;;;;6.82;3.75;;;10.30;99.90;;;;;;5052823;28;20029;-78
2022/04/12 05:34:59;;;;;;;6.18;3.30;;;10.30;99.90;;;;;;5052683;28;20040;-77
2022/04/12 05:37:25;;;;;;;7.35;3.65;;;10.40;99.90;;;;;;5052672;28;20386;-79
2022/04/12 05:39:50;;;;;;;7.55;3.85;;;10.30;99.90;;;;;;5051264;28;20028;-79
2022/04/12 05:42:16;;;;;;;9.10;3.90;;;10.20;99.90;;;;;;5052677;28;20032;-76
2022/04/12 05:44:42;;;;;;;9.55;3.83;;;10.30;99.90;;;;;;5052595;28;20044;-78
2022/04/12 05:47:10;;;;;;;5.75;3.80;;;10.40;99.90;;;;;;5052823;28;20496;-79
2022/04/12 05:49:36;;;;;;;6.25;3.63;;;10.50;99.90;;;;;;5050976;28;20036;-77
2022/04/12 05:52:02;;;;;;;8.27;3.33;;;10.50;99.90;;;;;;5052714;28;20013;-79
2022/04/12 05:54:28;;;;;;;8.60;4.15;;;10.50;99.90;;;;;;5051227;28;20083;-79
2022/04/12 05:56:53;;;;;;;7.95;3.78;;;10.30;99.90;;;;;;5052592;28;20053;-79
2022/04/12 05:59:19;;;;;;;7.45;3.58;;;10.40;99.90;;;;;;5052420;28;20052;-79
2022/04/12 06:01:44;;;;;;;8.43;4.03;;;10.50;99.90;;;;;;5051104;28;20032;-78
2022/04/12 06:04:10;;;;;;;8.27;3.45;;;10.70;99.90;;;;;;5052566;28;20032;-76
2022/04/12 06:06:36;;;;;;;6.10;3.50;;;10.60;99.90;;;;;;5052327;28;20029;-75
2022/04/12 06:09:03;;;;;;;6.25;3.60;;;10.60;99.90;;;;;;5052248;28;20377;-78
2022/04/12 06:11:29;;;;;;;10.07;4.95;;;10.80;99.90;;;;;;5052372;28;20116;-79
2022/04/12 06:13:54;;;;;;;7.60;3.97;;;10.80;99.90;;;;;;5052523;28;20029;-79
2022/04/12 06:16:20;;;;;;;12.30;3.60;;;11.00;99.90;;;;;;5051163;28;20040;-79
2022/04/12 06:18:46;;;;;;;7.68;3.85;;;11.00;99.90;;;;;;5052426;28;20381;-78
2022/04/12 06:21:12;;;;;;;6.72;3.58;;;11.10;99.90;;;;;;5052371;28;20017;-77
2022/04/12 06:23:38;;;;;;;7.60;4.00;;;11.30;99.90;;;;;;5052087;28;20031;-79
2022/04/12 06:26:04;;;;;;;12.25;4.60;;;11.50;99.90;;;;;;5052189;28;20087;-78
2022/04/12 06:28:30;;;;;;;18.23;6.80;;;11.60;99.90;;;;;;5052287;28;20029;-75
2022/04/12 06:30:58;;;;;;;11.68;5.65;;;11.60;99.90;;;;;;5052019;28;20025;-77
2022/04/12 06:33:24;;;;;;;6.22;3.28;;;11.70;99.90;;;;;;5053314;28;20024;-79
2022/04/12 06:35:50;;;;;;;6.40;3.72;;;11.80;99.90;;;;;;5052039;28;20029;-79
2022/04/12 06:38:16;;;;;;;11.38;4.78;;;11.80;99.90;;;;;;5052116;28;20112;-78
2022/04/12 06:40:44;;;;;;;9.50;3.25;;;12.00;99.90;;;;;;5051988;28;20040;-77
2022/04/12 06:43:11;;;;;;;9.35;4.63;;;11.90;99.90;;;;;;5052183;28;20044;-77
2022/04/12 06:45:38;;;;;;;9.05;3.90;;;12.00;99.90;;;;;;5053824;28;20481;-77
2022/04/12 06:48:04;;;;;;;7.80;3.60;;;12.00;99.90;;;;;;5055523;28;20025;-72
2022/04/12 06:50:30;;;;;;;7.30;3.15;;;12.00;99.90;;;;;;5055914;28;20493;-78
2022/04/12 06:52:57;;;;;;;5.40;2.95;;;12.00;99.90;;;;;;5055490;28;20100;-76
2022/04/12 06:55:23;;;;;;;10.60;3.53;;;12.00;99.90;;;;;;5056840;28;20037;-78
2022/04/12 06:57:49;;;;;;;10.55;3.78;;;11.90;99.90;;;;;;5056789;28;20024;-79
2022/04/12 07:00:17;;;;;;;9.55;2.83;;;12.00;99.90;;;;;;5057325;28;20112;-79
2022/04/12 07:02:43;;;;;;;7.07;2.85;;;12.20;99.90;;;;;;5057611;28;20041;-80
2022/04/12 07:05:09;;;;;;;4.40;2.85;;;12.20;99.80;;;;;;5056449;28;20025;-80
2022/04/12 07:07:36;;;;;;;6.70;3.17;;;12.20;99.90;;;;;;5054219;28;20021;-79
2022/04/12 07:10:04;;;;;;;8.68;3.08;;;12.30;99.90;;;;;;5055852;28;20041;-79
2022/04/12 07:12:30;;;;;;;6.05;3.40;;;12.50;99.90;;;;;;5054989;28;20032;-78
2022/04/12 07:14:56;;;;;;;6.22;3.10;;;12.50;99.90;;;;;;5055941;28;20031;-80
2022/04/12 07:17:21;;;;;;;10.23;3.55;;;12.40;99.90;;;;;;5054829;28;20028;-78
2022/04/12 07:19:47;;;;;;;13.40;3.85;;;12.40;99.90;;;;;;5055692;28;20021;-79
2022/04/12 07:22:13;;;;;;;6.38;2.97;;;12.50;99.90;;;;;;5055418;28;20443;-78
2022/04/12 07:24:38;;;;;;;6.72;3.15;;;12.70;99.90;;;;;;5055253;28;20032;-79
2022/04/12 07:27:04;;;;;;;8.50;3.28;;;12.90;99.90;;;;;;5055281;28;20128;-77
2022/04/12 07:29:30;;;;;;;5.85;3.35;;;13.00;99.90;;;;;;5056108;28;20240;-79
2022/04/12 07:31:57;;;;;;;10.50;3.35;;;12.90;99.80;;;;;;5055289;28;20484;-79
2022/04/12 07:34:22;;;;;;;7.63;3.72;;;12.90;99.90;;;;;;5056503;28;20086;-80
2022/04/12 07:36:53;;;;;;;9.20;3.47;;;13.10;99.90;;;;;;5055254;28;20033;-81
2022/04/12 07:39:22;;;;;;;6.13;3.13;;;13.10;99.50;;;;;;5054946;28;20025;-81
2022/04/12 07:41:49;;;;;;;6.35;3.60;;;13.20;99.90;;;;;;5054787;28;20059;-78
2022/04/12 07:44:16;;;;;;;18.20;3.28;;;13.30;99.50;;;;;;5054762;28;20029;-78
2022/04/12 07:46:42;;;;;;;5.53;3.13;;;13.60;99.40;;;;;;5054760;28;20166;-74
2022/04/12 07:49:08;;;;;;;6.40;3.33;;;13.70;98.90;;;;;;5054441;28;20119;-75
2022/04/12 07:51:34;;;;;;;8.52;3.33;;;13.90;99.20;;;;;;5053179;28;20045;-78
2022/04/12 07:54:02;;;;;;;7.95;3.55;;;14.10;98.40;;;;;;5054684;28;20072;-80
2022/04/12 07:56:28;;;;;;;9.80;3.15;;;14.20;98.70;;;;;;5053443;28;20021;-76
2022/04/12 07:58:54;;;;;;;12.15;3.08;;;14.60;98.60;;;;;;5054405;28;20398;-75
2022/04/12 08:01:20;;;;;;;10.95;3.10;;;14.70;97.90;;;;;;5054396;28;20025;-76
2022/04/12 08:03:47;;;;;;;5.72;2.95;;;14.90;97.80;;;;;;5054151;28;20029;-80
2022/04/12 08:06:13;;;;;;;4.28;2.50;;;14.60;97.50;;;;;;5053990;28;20024;-79
2022/04/12 08:08:39;;;;;;;8.75;3.05;;;14.50;98.00;;;;;;5054242;28;20433;-79
2022/04/12 08:11:05;;;;;;;8.48;3.30;;;14.50;98.30;;;;;;5054406;28;20025;-73
2022/04/12 08:13:31;;;;;;;9.40;3.60;;;14.60;98.10;;;;;;5053913;28;20037;-76
2022/04/12 08:15:57;;;;;;;8.07;3.50;;;14.90;98.00;;;;;;5054272;28;20029;-76
2022/04/12 08:18:23;;;;;;;6.13;3.00;;;14.80;97.70;;;;;;5054035;28;20020;-79
2022/04/12 08:20:49;;;;;;;8.20;4.22;;;15.00;98.30;;;;;;5053868;28;20040;-76
2022/04/12 08:23:16;;;;;;;7.80;3.17;;;15.20;97.40;;;;;;5053870;28;20111;-77
2022/04/12 08:25:42;;;;;;;4.45;3.10;;;15.10;97.30;;;;;;5054054;28;20071;-73
2022/04/12 08:28:09;;;;;;;14.00;3.42;;;15.20;97.20;;;;;;5053759;28;20033;-76
2022/04/12 08:30:35;;;;;;;13.23;3.67;;;15.40;97.80;;;;;;5053903;28;20020;-78
2022/04/12 08:33:02;;;;;;;12.95;3.80;;;15.60;97.20;;;;;;5053601;28;20029;-79
2022/04/12 08:35:28;;;;;;;7.85;3.60;;;15.60;96.50;;;;;;5053759;28;20040;-79
2022/04/12 08:37:54;;;;;;;8.98;2.70;;;15.70;96.70;;;;;;5053766;28;20032;-75
2022/04/12 08:40:21;;;;;;;7.82;2.63;;;15.90;96.60;;;;;;5053632;28;20029;-77
2022/04/12 08:42:47;;;;;;;7.70;3.28;;;16.10;96.20;;;;;;5053447;28;20028;-75
2022/04/12 08:45:13;;;;;;;4.70;3.13;;;16.20;96.20;;;;;;5053435;28;20029;-76
2022/04/12 08:47:40;;;;;;;10.85;3.53;;;16.40;96.40;;;;;;5053347;28;20381;-79
2022/04/12 08:50:07;;;;;;;8.15;3.20;;;16.50;96.00;;;;;;5053149;28;20389;-73
2022/04/12 08:52:35;;;;;;;4.88;2.53;;;16.50;96.20;;;;;;5053419;28;20040;-73
2022/04/12 08:55:01;;;;;;;15.57;3.33;;;16.70;95.90;;;;;;5053198;28;20043;-76
2022/04/12 08:57:27;;;;;;;6.65;3.15;;;16.60;96.10;;;;;;5053216;28;20060;-79
2022/04/12 08:59:53;;;;;;;9.38;3.45;;;16.70;96.20;;;;;;5053378;28;20423;-79
2022/04/12 09:02:19;;;;;;;5.68;3.00;;;16.60;96.50;;;;;;5053204;28;20108;-75
2022/04/12 09:04:45;;;;;;;11.50;3.30;;;16.50;96.00;;;;;;5052701;28;20068;-77
2022/04/12 09:07:12;;;;;;;6.55;2.55;;;16.60;96.20;;;;;;5053207;28;20071;-75
2022/04/12 09:09:40;;;;;;;7.97;2.97;;;16.60;96.60;;;;;;5052631;28;20132;-77
2022/04/12 09:12:11;;;;;;;8.73;2.47;;;16.90;96.30;;;;;;5052314;28;20048;-79
2022/04/12 09:14:37;;;;;;;5.45;2.75;;;17.40;96.00;;;;;;5052769;28;20041;-79
2022/04/12 09:17:04;;;;;;;6.38;2.35;;;17.60;95.60;;;;;;5052862;28;20135;-76
2022/04/12 09:19:49;;;;;;;8.05;3.20;;;17.20;95.60;;;;;;5052938;28;20397;-77
2022/04/12 09:22:23;;;;;;;7.30;3.20;;;17.60;95.40;;;;;;5053285;28;20028;-71
2022/04/12 09:24:50;;;;;;;11.95;2.95;;;17.60;95.00;;;;;;5052735;28;20024;-75
2022/04/12 09:27:21;;;;;;;7.63;2.85;;;17.80;95.00;;;;;;5052724;28;20147;-74
2022/04/12 09:29:59;;;;;;;10.57;3.10;;;17.30;95.20;;;;;;5052865;28;20045;-79
2022/04/12 09:32:27;;;;;;;10.27;3.15;;;17.30;95.70;;;;;;5052652;28;20029;-76
2022/04/12 09:34:54;;;;;;;16.05;2.95;;;17.30;95.90;;;;;;5052835;28;20025;-74
2022/04/12 09:37:27;;;;;;;6.90;2.45;;;17.50;95.70;;;;;;5057785;28;20073;-81
2022/04/12 09:39:59;;;;;;;10.93;2.72;;;17.40;95.30;;;;;;5058040;28;20111;-74
2022/04/12 09:42:50;;;;;;;6.72;2.67;;;17.20;95.50;;;;;;5055415;28;20037;-80
2022/04/12 09:45:23;;;;;;;6.20;2.65;;;17.50;95.60;;;;;;5052755;28;20423;-80
2022/04/12 09:47:52;;;;;;;13.07;3.15;;;18.00;95.30;;;;;;5052268;28;20029;-81
2022/04/12 09:50:25;;;;;;;6.03;2.63;;;18.00;94.90;;;;;;5052584;28;20120;-77
2022/04/12 09:52:52;;;;;;;6.15;2.65;;;18.10;94.80;;;;;;5052753;28;20044;-81
2022/04/12 09:55:45;;;;;;;8.32;2.67;;;18.00;94.90;;;;;;5052945;28;20033;-77
2022/04/12 09:58:18;;;;;;;8.75;3.40;;;18.10;94.90;;;;;;5050983;28;20041;-81
2022/04/12 10:00:47;;;;;;;10.70;2.95;;;17.90;94.70;;;;;;5052278;28;20162;-81
2022/04/12 10:03:17;;;;;;;9.35;2.92;;;17.90;95.40;;;;;;5052500;28;20025;-81
2022/04/12 10:05:44;;;;;;;7.82;2.83;;;18.00;95.30;;;;;;5052392;28;20110;-81
2022/04/12 10:08:12;;;;;;;10.98;3.33;;;18.40;94.90;;;;;;5052323;28;20020;-81
2022/04/12 10:10:42;;;;;;;9.07;2.75;;;18.40;94.80;;;;;;5052212;28;20037;-81
2022/04/12 10:13:10;;;;;;;7.57;2.90;;;18.40;94.70;;;;;;5052641;28;20033;-82
2022/04/12 10:15:37;;;;;;;8.68;2.83;;;18.70;94.30;;;;;;5051881;28;20078;-81
2022/04/12 10:18:04;;;;;;;8.27;2.67;;;18.80;94.10;;;;;;5052348;28;20119;-81
2022/04/12 10:20:31;;;;;;;7.80;2.90;;;18.90;94.00;;;;;;5053914;28;20032;-81
2022/04/12 10:22:58;;;;;;;13.07;3.10;;;19.00;94.10;;;;;;5056391;28;20021;-79
2022/04/12 10:25:24;;;;;;;8.93;2.92;;;19.30;94.20;;;;;;5055896;28;20029;-82
2022/04/12 10:27:55;;;;;;;6.60;2.42;;;19.40;93.90;;;;;;5056065;28;20094;-81
2022/04/12 10:30:25;;;;;;;10.13;2.90;;;19.30;93.60;;;;;;5056146;28;20048;-80
2022/04/12 10:33:18;;;;;;;11.00;2.88;;;19.50;93.80;;;;;;5056236;28;20279;-79
2022/04/12 10:35:44;;;;;;;5.53;3.22;;;19.80;94.00;;;;;;5056148;28;20044;-81
2022/04/12 10:38:17;;;;;;;10.68;2.70;;;20.10;93.20;;;;;;5056068;28;20025;-80
2022/04/12 10:40:45;;;;;;;10.35;3.00;;;20.10;93.00;;;;;;5055843;28;20040;-81
2022/04/12 10:43:15;;;;;;;6.93;2.20;;;20.00;93.30;;;;;;5056026;28;20072;-81
2022/04/12 10:45:49;;;;;;;15.07;3.38;;;19.70;93.20;;;;;;5055742;28;20029;-80
2022/04/12 10:48:20;;;;;;;8.25;2.50;;;20.10;93.10;;;;;;5055448;28;20428;-81
2022/04/12 10:50:46;;;;;;;9.80;2.95;;;20.10;92.70;;;;;;5055740;28;20125;-81
2022/04/12 10:53:12;;;;;;;14.45;3.70;;;20.10;92.80;;;;;;5055693;28;20104;-81
2022/04/12 10:55:41;;;;;;;8.13;2.70;;;20.50;93.50;;;;;;5055351;28;20124;-82
2022/04/12 10:58:27;;;;;;;7.60;2.70;;;20.60;92.90;;;;;;5055525;28;20146;-81
2022/04/12 11:00:54;;;;;;;10.95;2.50;;;20.70;92.80;;;;;;5055682;28;20063;-82
2022/04/12 11:03:40;;;;;;;8.23;2.30;;;20.60;91.70;;;;;;5055514;28;20359;-81
2022/04/12 11:06:33;;;;;;;12.23;2.42;;;20.50;92.00;;;;;;5055546;28;20426;-81
2022/04/12 11:09:11;;;;;;;13.73;3.08;;;20.70;92.30;;;;;;5054115;28;20080;-80
2022/04/12 11:11:43;;;;;;;7.43;2.42;;;21.00;91.90;;;;;;5054015;28;20041;-81
2022/04/12 11:14:28;;;;;;;8.20;2.70;;;20.90;92.00;;;;;;5055121;28;20025;-81
2022/04/12 11:17:00;;;;;;;9.02;2.67;;;20.70;92.70;;;;;;5055237;28;20388;-82
2022/04/12 11:19:27;;;;;;;9.07;2.80;;;20.70;92.20;;;;;;5055175;28;20025;-76
2022/04/12 11:21:55;;;;;;;5.32;1.80;;;21.10;91.80;;;;;;5055246;28;20052;-81
2022/04/12 11:24:24;;;;;;;8.73;2.30;;;21.00;91.90;;;;;;5055334;28;20040;-81
2022/04/12 11:27:02;;;;;;;7.70;2.10;;;21.20;91.60;;;;;;5054859;28;20029;-81
2022/04/12 11:29:29;;;;;;;7.72;2.30;;;21.90;91.90;;;;;;5054758;28;20527;-82
2022/04/12 11:31:55;;;;;;;11.35;2.00;;;22.40;91.50;;;;;;5053434;28;20486;-82
2022/04/12 11:34:23;;;;;;;5.13;2.20;;;22.70;90.00;;;;;;5055152;28;20041;-77
2022/04/12 11:36:52;;;;;;;11.85;2.20;;;22.30;90.50;;;;;;5053392;28;20029;-80
2022/04/12 11:39:23;;;;;;;8.57;2.50;;;22.40;90.80;;;;;;5053904;28;20112;-81
2022/04/12 11:41:50;;;;;;;4.93;2.22;;;22.50;90.30;;;;;;5054725;28;20056;-81
2022/04/12 11:44:21;;;;;;;7.45;2.30;;;22.20;90.70;;;;;;5054474;28;20025;-82
2022/04/12 11:46:55;;;;;;;5.97;2.05;;;22.90;90.60;;;;;;5054554;28;20112;-82
2022/04/12 11:49:30;;;;;;;11.52;2.70;;;22.90;90.00;;;;;;5054546;28;20045;-74
2022/04/12 11:52:00;;;;;;;8.98;2.28;;;22.40;88.90;;;;;;5054631;28;20025;-75
2022/04/12 11:54:36;;;;;;;10.25;2.00;;;23.10;91.00;;;;;;5054597;28;20029;-77
2022/04/12 11:57:02;;;;;;;7.40;2.35;;;22.90;89.90;;;;;;5054244;28;20021;-76
2022/04/12 11:59:30;;;;;;;5.35;1.95;;;22.90;89.70;;;;;;5053273;28;20036;-73
2022/04/12 12:02:02;;;;;;;6.30;2.55;;;22.70;89.50;;;;;;5054423;28;20044;-79
2022/04/12 12:04:33;;;;;;;6.38;2.38;;;22.60;89.80;;;;;;5054336;28;20021;-75
2022/04/12 12:07:07;;;;;;;12.52;2.30;;;22.80;88.60;;;;;;5054650;28;20043;-78
2022/04/12 12:09:34;;;;;;;9.05;1.75;;;23.20;88.90;;;;;;5054906;28;20081;-74
2022/04/12 12:12:08;;;;;;;7.97;2.35;;;22.80;86.80;;;;;;5055289;28;20021;-71
2022/04/12 12:14:36;;;;;;;13.23;2.80;;;22.60;87.50;;;;;;5054713;28;20066;-76
2022/04/12 12:17:09;;;;;;;8.40;1.98;;;22.70;87.50;;;;;;5055008;28;20448;-75
2022/04/12 12:19:39;;;;;;;6.45;2.88;;;22.70;86.20;;;;;;5036893;28;20060;-75
2022/04/12 12:22:07;;;;;;;6.57;2.13;;;23.00;87.20;;;;;;5055980;28;20021;-79
2022/04/12 12:24:37;;;;;;;9.18;2.17;;;22.90;85.10;;;;;;5053822;28;20111;-81
2022/04/12 12:27:05;;;;;;;4.57;1.70;;;22.80;86.70;;;;;;5054227;28;20367;-81
2022/04/12 12:29:36;;;;;;;7.18;2.10;;;23.10;86.20;;;;;;5052919;28;20052;-80
2022/04/12 12:32:03;;;;;;;6.40;2.10;;;22.90;84.90;;;;;;5054257;28;20128;-82
2022/04/12 12:34:30;;;;;;;6.15;1.90;;;23.10;86.40;;;;;;5054037;28;20036;-82
2022/04/12 12:36:56;;;;;;;10.52;1.98;;;23.90;85.60;;;;;;5053670;28;20071;-82
2022/04/12 12:39:26;;;;;;;10.38;2.30;;;23.60;84.40;;;;;;5053842;28;20025;-82
2022/04/12 12:41:56;;;;;;;8.48;2.38;;;23.20;85.10;;;;;;5053252;28;20128;-81
2022/04/12 12:44:23;;;;;;;9.83;2.40;;;23.40;85.20;;;;;;5053105;28;20090;-82
2022/04/12 12:46:55;;;;;;;9.57;2.40;;;23.40;83.80;;;;;;5053534;28;20033;-82